Terminal Aerodrome Forecast
Issued by NWS

Current Version | Previous Version | Graphics & Text | Print | Product List | Glossary On
Versions: 1 2 3 4 5 6 7 8 9 10 11 12 13 14 15 16 17 18 19 20 21 22 23 24 25 26
000
FTUS41 KILN 152119 AAA
TAFLUK
TAF AMD
KLUK 152119Z 1521/1618 06006KT 3SM -RA BR OVC012
     FM160000 07004KT P6SM VCSH OVC012
     FM160500 08004KT 3SM -DZ BR OVC007
     FM161600 12004KT P6SM OVC012=

USA.gov is the U.S. government's official web portal to all federal, state and local government web resources and services.